sensor_id;sensor_type;location;lat;lon;timestamp;P1;durP1;ratioP1;P2;durP2;ratioP2
40731;SDS011;26420;52.256;9.096;2022-08-19T00:00:44;12.55;;;6.05;;
40731;SDS011;26420;52.256;9.096;2022-08-19T00:05:46;9.18;;;6.20;;
40731;SDS011;26420;52.256;9.096;2022-08-19T00:10:48;9.20;;;6.18;;
40731;SDS011;26420;52.256;9.096;2022-08-19T00:15:49;9.32;;;6.40;;
40731;SDS011;26420;52.256;9.096;2022-08-19T00:20:51;9.38;;;6.15;;
40731;SDS011;26420;52.256;9.096;2022-08-19T00:25:53;9.43;;;6.32;;
40731;SDS011;26420;52.256;9.096;2022-08-19T00:30:55;9.15;;;6.28;;
40731;SDS011;26420;52.256;9.096;2022-08-19T00:35:57;9.93;;;6.05;;
40731;SDS011;26420;52.256;9.096;2022-08-19T00:40:59;10.77;;;5.88;;
40731;SDS011;26420;52.256;9.096;2022-08-19T00:46:01;9.25;;;6.22;;
40731;SDS011;26420;52.256;9.096;2022-08-19T00:51:05;9.60;;;5.85;;
40731;SDS011;26420;52.256;9.096;2022-08-19T00:56:07;7.38;;;5.60;;
40731;SDS011;26420;52.256;9.096;2022-08-19T01:01:09;7.03;;;5.43;;
40731;SDS011;26420;52.256;9.096;2022-08-19T01:06:12;9.48;;;5.97;;
40731;SDS011;26420;52.256;9.096;2022-08-19T01:11:20;10.57;;;5.60;;
40731;SDS011;26420;52.256;9.096;2022-08-19T01:16:22;8.05;;;5.53;;
40731;SDS011;26420;52.256;9.096;2022-08-19T01:21:28;8.35;;;5.68;;
40731;SDS011;26420;52.256;9.096;2022-08-19T01:26:38;7.47;;;5.25;;
40731;SDS011;26420;52.256;9.096;2022-08-19T01:31:43;8.98;;;5.60;;
40731;SDS011;26420;52.256;9.096;2022-08-19T01:36:46;10.82;;;5.68;;
40731;SDS011;26420;52.256;9.096;2022-08-19T01:41:48;10.82;;;5.80;;
40731;SDS011;26420;52.256;9.096;2022-08-19T01:46:51;8.93;;;6.25;;
40731;SDS011;26420;52.256;9.096;2022-08-19T01:51:53;11.35;;;7.50;;
40731;SDS011;26420;52.256;9.096;2022-08-19T01:56:58;10.02;;;7.03;;
40731;SDS011;26420;52.256;9.096;2022-08-19T02:02:04;11.55;;;7.38;;
40731;SDS011;26420;52.256;9.096;2022-08-19T02:07:09;12.93;;;8.10;;
40731;SDS011;26420;52.256;9.096;2022-08-19T02:12:11;9.88;;;7.55;;
40731;SDS011;26420;52.256;9.096;2022-08-19T02:17:13;16.35;;;8.27;;
40731;SDS011;26420;52.256;9.096;2022-08-19T02:22:14;11.05;;;8.15;;
40731;SDS011;26420;52.256;9.096;2022-08-19T02:27:16;13.80;;;8.15;;
40731;SDS011;26420;52.256;9.096;2022-08-19T02:32:18;11.85;;;8.20;;
40731;SDS011;26420;52.256;9.096;2022-08-19T02:37:21;14.90;;;8.35;;
40731;SDS011;26420;52.256;9.096;2022-08-19T02:42:41;13.35;;;8.40;;
40731;SDS011;26420;52.256;9.096;2022-08-19T02:47:43;13.27;;;9.65;;
40731;SDS011;26420;52.256;9.096;2022-08-19T02:52:45;15.30;;;10.38;;
40731;SDS011;26420;52.256;9.096;2022-08-19T02:57:47;15.57;;;10.30;;
40731;SDS011;26420;52.256;9.096;2022-08-19T03:02:49;18.88;;;11.35;;
40731;SDS011;26420;52.256;9.096;2022-08-19T03:07:51;17.67;;;12.02;;
40731;SDS011;26420;52.256;9.096;2022-08-19T03:12:53;19.38;;;11.80;;
40731;SDS011;26420;52.256;9.096;2022-08-19T03:17:54;16.40;;;11.68;;
40731;SDS011;26420;52.256;9.096;2022-08-19T03:22:57;18.13;;;11.73;;
40731;SDS011;26420;52.256;9.096;2022-08-19T03:27:59;15.98;;;10.82;;
40731;SDS011;26420;52.256;9.096;2022-08-19T03:33:01;18.10;;;12.02;;
40731;SDS011;26420;52.256;9.096;2022-08-19T03:38:05;16.52;;;11.00;;
40731;SDS011;26420;52.256;9.096;2022-08-19T03:43:07;19.30;;;11.32;;
40731;SDS011;26420;52.256;9.096;2022-08-19T03:48:09;18.98;;;11.32;;
40731;SDS011;26420;52.256;9.096;2022-08-19T03:53:11;14.27;;;10.85;;
40731;SDS011;26420;52.256;9.096;2022-08-19T03:58:12;16.65;;;11.30;;
40731;SDS011;26420;52.256;9.096;2022-08-19T04:03:14;16.67;;;10.90;;
40731;SDS011;26420;52.256;9.096;2022-08-19T04:08:16;18.90;;;12.30;;
40731;SDS011;26420;52.256;9.096;2022-08-19T04:13:21;20.08;;;13.10;;
40731;SDS011;26420;52.256;9.096;2022-08-19T04:18:23;17.10;;;12.30;;
40731;SDS011;26420;52.256;9.096;2022-08-19T04:23:25;18.73;;;12.00;;
40731;SDS011;26420;52.256;9.096;2022-08-19T04:28:29;19.35;;;11.73;;
40731;SDS011;26420;52.256;9.096;2022-08-19T04:33:31;19.15;;;11.98;;
40731;SDS011;26420;52.256;9.096;2022-08-19T04:38:33;19.65;;;12.82;;
40731;SDS011;26420;52.256;9.096;2022-08-19T04:43:36;19.75;;;12.82;;
40731;SDS011;26420;52.256;9.096;2022-08-19T04:48:39;20.50;;;13.23;;
40731;SDS011;26420;52.256;9.096;2022-08-19T04:53:50;21.60;;;12.88;;
40731;SDS011;26420;52.256;9.096;2022-08-19T04:58:53;21.70;;;12.93;;
40731;SDS011;26420;52.256;9.096;2022-08-19T05:03:55;22.42;;;13.68;;
40731;SDS011;26420;52.256;9.096;2022-08-19T05:08:59;22.08;;;13.85;;
40731;SDS011;26420;52.256;9.096;2022-08-19T05:14:02;23.63;;;14.63;;
40731;SDS011;26420;52.256;9.096;2022-08-19T05:19:03;21.30;;;13.95;;
40731;SDS011;26420;52.256;9.096;2022-08-19T05:24:25;23.98;;;14.52;;
40731;SDS011;26420;52.256;9.096;2022-08-19T05:29:28;24.33;;;14.20;;
40731;SDS011;26420;52.256;9.096;2022-08-19T05:34:36;22.63;;;14.75;;
40731;SDS011;26420;52.256;9.096;2022-08-19T05:39:39;23.77;;;13.85;;
40731;SDS011;26420;52.256;9.096;2022-08-19T05:44:42;22.73;;;14.05;;
40731;SDS011;26420;52.256;9.096;2022-08-19T05:49:48;24.38;;;14.20;;
40731;SDS011;26420;52.256;9.096;2022-08-19T05:54:51;20.52;;;14.00;;
40731;SDS011;26420;52.256;9.096;2022-08-19T05:59:56;22.23;;;14.15;;
40731;SDS011;26420;52.256;9.096;2022-08-19T06:04:59;26.15;;;15.05;;
40731;SDS011;26420;52.256;9.096;2022-08-19T06:10:01;22.38;;;14.75;;
40731;SDS011;26420;52.256;9.096;2022-08-19T06:15:06;23.65;;;14.20;;
40731;SDS011;26420;52.256;9.096;2022-08-19T06:20:10;23.02;;;14.88;;
40731;SDS011;26420;52.256;9.096;2022-08-19T06:25:14;21.80;;;13.68;;
40731;SDS011;26420;52.256;9.096;2022-08-19T06:30:16;21.92;;;14.43;;
40731;SDS011;26420;52.256;9.096;2022-08-19T06:35:18;22.08;;;13.60;;
40731;SDS011;26420;52.256;9.096;2022-08-19T06:40:20;18.83;;;13.15;;
40731;SDS011;26420;52.256;9.096;2022-08-19T06:45:22;21.60;;;14.05;;
40731;SDS011;26420;52.256;9.096;2022-08-19T06:50:34;18.90;;;12.68;;
40731;SDS011;26420;52.256;9.096;2022-08-19T06:55:39;20.02;;;12.05;;
40731;SDS011;26420;52.256;9.096;2022-08-19T07:00:42;18.27;;;11.70;;
40731;SDS011;26420;52.256;9.096;2022-08-19T07:05:44;19.35;;;12.02;;
40731;SDS011;26420;52.256;9.096;2022-08-19T07:10:46;19.48;;;12.18;;
40731;SDS011;26420;52.256;9.096;2022-08-19T07:15:49;19.17;;;11.43;;
40731;SDS011;26420;52.256;9.096;2022-08-19T07:20:51;18.00;;;11.15;;
40731;SDS011;26420;52.256;9.096;2022-08-19T07:31:16;12.05;;;7.55;;
40731;SDS011;26420;52.256;9.096;2022-08-19T07:36:26;8.90;;;6.03;;
40731;SDS011;26420;52.256;9.096;2022-08-19T07:41:32;9.70;;;6.53;;
40731;SDS011;26420;52.256;9.096;2022-08-19T07:46:36;11.77;;;6.80;;
40731;SDS011;26420;52.256;9.096;2022-08-19T07:51:40;9.35;;;6.20;;
40731;SDS011;26420;52.256;9.096;2022-08-19T07:56:42;8.98;;;5.80;;
40731;SDS011;26420;52.256;9.096;2022-08-19T08:01:44;7.43;;;5.15;;
40731;SDS011;26420;52.256;9.096;2022-08-19T08:06:46;8.43;;;5.20;;
40731;SDS011;26420;52.256;9.096;2022-08-19T08:12:11;11.23;;;5.10;;
40731;SDS011;26420;52.256;9.096;2022-08-19T08:17:35;9.10;;;6.03;;
40731;SDS011;26420;52.256;9.096;2022-08-19T08:22:51;11.05;;;6.75;;
40731;SDS011;26420;52.256;9.096;2022-08-19T08:28:12;10.85;;;5.55;;
40731;SDS011;26420;52.256;9.096;2022-08-19T08:33:21;7.53;;;4.45;;
40731;SDS011;26420;52.256;9.096;2022-08-19T08:38:34;7.43;;;3.92;;
40731;SDS011;26420;52.256;9.096;2022-08-19T08:43:44;7.95;;;5.25;;
40731;SDS011;26420;52.256;9.096;2022-08-19T08:48:52;5.90;;;3.90;;
40731;SDS011;26420;52.256;9.096;2022-08-19T08:53:59;7.03;;;4.85;;
40731;SDS011;26420;52.256;9.096;2022-08-19T08:59:05;6.25;;;4.13;;
40731;SDS011;26420;52.256;9.096;2022-08-19T09:04:28;7.40;;;4.63;;
40731;SDS011;26420;52.256;9.096;2022-08-19T09:09:34;7.20;;;5.00;;
40731;SDS011;26420;52.256;9.096;2022-08-19T09:15:02;7.00;;;4.50;;
40731;SDS011;26420;52.256;9.096;2022-08-19T09:25:13;6.43;;;4.18;;
40731;SDS011;26420;52.256;9.096;2022-08-19T09:30:26;4.93;;;3.35;;
40731;SDS011;26420;52.256;9.096;2022-08-19T09:35:31;3.83;;;3.20;;
40731;SDS011;26420;52.256;9.096;2022-08-19T09:40:50;5.75;;;3.70;;
40731;SDS011;26420;52.256;9.096;2022-08-19T09:45:53;5.60;;;3.05;;
40731;SDS011;26420;52.256;9.096;2022-08-19T09:50:54;4.00;;;2.30;;
40731;SDS011;26420;52.256;9.096;2022-08-19T09:55:56;2.42;;;1.58;;
40731;SDS011;26420;52.256;9.096;2022-08-19T10:00:59;2.33;;;1.40;;
40731;SDS011;26420;52.256;9.096;2022-08-19T10:06:02;2.45;;;1.90;;
40731;SDS011;26420;52.256;9.096;2022-08-19T10:11:15;2.95;;;2.25;;
40731;SDS011;26420;52.256;9.096;2022-08-19T10:16:36;3.63;;;1.98;;
40731;SDS011;26420;52.256;9.096;2022-08-19T10:21:40;3.15;;;1.98;;
40731;SDS011;26420;52.256;9.096;2022-08-19T10:26:41;2.72;;;1.98;;
40731;SDS011;26420;52.256;9.096;2022-08-19T10:31:47;3.87;;;2.70;;
40731;SDS011;26420;52.256;9.096;2022-08-19T10:42:06;3.13;;;1.75;;
40731;SDS011;26420;52.256;9.096;2022-08-19T10:47:12;3.03;;;2.03;;
40731;SDS011;26420;52.256;9.096;2022-08-19T10:52:25;3.78;;;2.10;;
40731;SDS011;26420;52.256;9.096;2022-08-19T10:57:39;4.45;;;2.10;;
40731;SDS011;26420;52.256;9.096;2022-08-19T11:03:01;2.35;;;1.50;;
40731;SDS011;26420;52.256;9.096;2022-08-19T11:08:03;2.10;;;1.80;;
40731;SDS011;26420;52.256;9.096;2022-08-19T11:13:23;2.05;;;1.58;;
40731;SDS011;26420;52.256;9.096;2022-08-19T11:18:25;2.47;;;1.45;;
40731;SDS011;26420;52.256;9.096;2022-08-19T11:23:27;1.42;;;1.33;;
40731;SDS011;26420;52.256;9.096;2022-08-19T11:28:29;2.05;;;1.10;;
40731;SDS011;26420;52.256;9.096;2022-08-19T11:33:31;1.58;;;1.27;;
40731;SDS011;26420;52.256;9.096;2022-08-19T11:38:34;1.13;;;0.95;;
40731;SDS011;26420;52.256;9.096;2022-08-19T11:43:36;1.05;;;0.95;;
40731;SDS011;26420;52.256;9.096;2022-08-19T11:48:38;1.67;;;1.00;;
40731;SDS011;26420;52.256;9.096;2022-08-19T11:53:41;1.48;;;1.20;;
40731;SDS011;26420;52.256;9.096;2022-08-19T11:58:43;1.45;;;1.13;;
40731;SDS011;26420;52.256;9.096;2022-08-19T12:03:45;2.30;;;1.20;;
40731;SDS011;26420;52.256;9.096;2022-08-19T12:08:48;1.55;;;1.33;;
40731;SDS011;26420;52.256;9.096;2022-08-19T12:13:50;1.25;;;1.00;;
40731;SDS011;26420;52.256;9.096;2022-08-19T12:18:51;1.05;;;0.88;;
40731;SDS011;26420;52.256;9.096;2022-08-19T12:23:54;1.40;;;1.02;;
40731;SDS011;26420;52.256;9.096;2022-08-19T12:28:57;1.58;;;1.30;;
40731;SDS011;26420;52.256;9.096;2022-08-19T12:34:00;0.98;;;0.82;;
40731;SDS011;26420;52.256;9.096;2022-08-19T12:39:03;1.75;;;1.20;;
40731;SDS011;26420;52.256;9.096;2022-08-19T12:44:05;2.38;;;1.30;;
40731;SDS011;26420;52.256;9.096;2022-08-19T12:49:09;1.77;;;1.55;;
40731;SDS011;26420;52.256;9.096;2022-08-19T12:54:31;2.17;;;1.30;;
40731;SDS011;26420;52.256;9.096;2022-08-19T12:59:34;1.92;;;1.30;;
40731;SDS011;26420;52.256;9.096;2022-08-19T13:04:37;1.90;;;1.40;;
40731;SDS011;26420;52.256;9.096;2022-08-19T13:09:41;1.73;;;1.60;;
40731;SDS011;26420;52.256;9.096;2022-08-19T13:14:43;1.80;;;1.40;;
40731;SDS011;26420;52.256;9.096;2022-08-19T13:19:47;1.60;;;1.40;;
40731;SDS011;26420;52.256;9.096;2022-08-19T13:24:49;1.55;;;1.30;;
40731;SDS011;26420;52.256;9.096;2022-08-19T13:29:50;1.88;;;1.17;;
40731;SDS011;26420;52.256;9.096;2022-08-19T13:35:11;1.95;;;1.20;;
40731;SDS011;26420;52.256;9.096;2022-08-19T13:40:18;1.70;;;1.20;;
40731;SDS011;26420;52.256;9.096;2022-08-19T13:45:24;1.90;;;1.05;;
40731;SDS011;26420;52.256;9.096;2022-08-19T13:50:28;1.70;;;1.05;;
40731;SDS011;26420;52.256;9.096;2022-08-19T13:55:32;1.52;;;1.42;;
40731;SDS011;26420;52.256;9.096;2022-08-19T14:00:35;1.77;;;1.30;;
40731;SDS011;26420;52.256;9.096;2022-08-19T14:10:41;1.90;;;1.60;;
40731;SDS011;26420;52.256;9.096;2022-08-19T14:15:45;2.28;;;1.50;;
40731;SDS011;26420;52.256;9.096;2022-08-19T14:20:48;2.47;;;1.60;;
40731;SDS011;26420;52.256;9.096;2022-08-19T14:25:50;1.65;;;1.40;;
40731;SDS011;26420;52.256;9.096;2022-08-19T14:30:51;2.40;;;1.40;;
40731;SDS011;26420;52.256;9.096;2022-08-19T14:35:56;1.45;;;1.17;;
40731;SDS011;26420;52.256;9.096;2022-08-19T14:41:07;1.67;;;1.58;;
40731;SDS011;26420;52.256;9.096;2022-08-19T14:46:16;2.53;;;1.20;;
40731;SDS011;26420;52.256;9.096;2022-08-19T14:51:22;1.08;;;0.93;;
40731;SDS011;26420;52.256;9.096;2022-08-19T14:56:28;1.40;;;1.30;;
40731;SDS011;26420;52.256;9.096;2022-08-19T15:01:30;2.70;;;2.55;;
40731;SDS011;26420;52.256;9.096;2022-08-19T15:06:32;3.85;;;3.55;;
40731;SDS011;26420;52.256;9.096;2022-08-19T15:11:34;1.58;;;1.20;;
40731;SDS011;26420;52.256;9.096;2022-08-19T15:16:36;1.50;;;1.40;;
40731;SDS011;26420;52.256;9.096;2022-08-19T15:21:40;1.60;;;1.30;;
40731;SDS011;26420;52.256;9.096;2022-08-19T15:26:42;1.92;;;1.30;;
40731;SDS011;26420;52.256;9.096;2022-08-19T15:31:44;1.30;;;1.20;;
40731;SDS011;26420;52.256;9.096;2022-08-19T15:36:49;1.42;;;1.33;;
40731;SDS011;26420;52.256;9.096;2022-08-19T15:41:51;1.88;;;1.40;;
40731;SDS011;26420;52.256;9.096;2022-08-19T15:46:53;1.17;;;1.02;;
40731;SDS011;26420;52.256;9.096;2022-08-19T15:51:54;1.77;;;1.38;;
40731;SDS011;26420;52.256;9.096;2022-08-19T15:56:58;1.58;;;1.20;;
40731;SDS011;26420;52.256;9.096;2022-08-19T16:02:19;1.27;;;1.10;;
40731;SDS011;26420;52.256;9.096;2022-08-19T16:08:01;1.13;;;1.02;;
40731;SDS011;26420;52.256;9.096;2022-08-19T16:13:03;1.20;;;1.10;;
40731;SDS011;26420;52.256;9.096;2022-08-19T16:18:06;1.23;;;1.13;;
40731;SDS011;26420;52.256;9.096;2022-08-19T16:23:07;2.80;;;1.20;;
40731;SDS011;26420;52.256;9.096;2022-08-19T16:28:10;1.40;;;1.30;;
40731;SDS011;26420;52.256;9.096;2022-08-19T16:33:11;3.10;;;1.27;;
40731;SDS011;26420;52.256;9.096;2022-08-19T16:38:23;1.30;;;1.20;;
40731;SDS011;26420;52.256;9.096;2022-08-19T16:43:26;3.28;;;1.63;;
40731;SDS011;26420;52.256;9.096;2022-08-19T16:48:29;4.82;;;4.53;;
40731;SDS011;26420;52.256;9.096;2022-08-19T16:53:31;1.45;;;1.20;;
40731;SDS011;26420;52.256;9.096;2022-08-19T16:58:32;1.38;;;1.10;;
40731;SDS011;26420;52.256;9.096;2022-08-19T17:03:35;1.40;;;1.30;;
40731;SDS011;26420;52.256;9.096;2022-08-19T17:08:38;3.83;;;1.30;;
40731;SDS011;26420;52.256;9.096;2022-08-19T17:13:40;2.15;;;1.50;;
40731;SDS011;26420;52.256;9.096;2022-08-19T17:18:43;1.95;;;1.60;;
40731;SDS011;26420;52.256;9.096;2022-08-19T17:23:45;4.82;;;2.85;;
40731;SDS011;26420;52.256;9.096;2022-08-19T17:28:49;2.05;;;1.88;;
40731;SDS011;26420;52.256;9.096;2022-08-19T17:33:52;2.40;;;1.80;;
40731;SDS011;26420;52.256;9.096;2022-08-19T17:38:56;2.00;;;1.83;;
40731;SDS011;26420;52.256;9.096;2022-08-19T17:43:58;1.85;;;1.75;;
40731;SDS011;26420;52.256;9.096;2022-08-19T17:49:00;2.83;;;1.77;;
40731;SDS011;26420;52.256;9.096;2022-08-19T17:54:02;1.67;;;1.55;;
40731;SDS011;26420;52.256;9.096;2022-08-19T17:59:06;1.75;;;1.60;;
40731;SDS011;26420;52.256;9.096;2022-08-19T18:04:14;2.47;;;1.80;;
40731;SDS011;26420;52.256;9.096;2022-08-19T18:09:17;1.70;;;1.60;;
40731;SDS011;26420;52.256;9.096;2022-08-19T18:14:21;2.25;;;1.80;;
40731;SDS011;26420;52.256;9.096;2022-08-19T18:19:33;3.10;;;1.70;;
40731;SDS011;26420;52.256;9.096;2022-08-19T18:24:42;2.50;;;1.73;;
40731;SDS011;26420;52.256;9.096;2022-08-19T18:29:46;3.40;;;1.75;;
40731;SDS011;26420;52.256;9.096;2022-08-19T18:34:48;3.80;;;1.70;;
40731;SDS011;26420;52.256;9.096;2022-08-19T18:39:49;3.33;;;2.00;;
40731;SDS011;26420;52.256;9.096;2022-08-19T18:45:10;2.35;;;2.13;;
40731;SDS011;26420;52.256;9.096;2022-08-19T18:50:31;1.98;;;1.67;;
40731;SDS011;26420;52.256;9.096;2022-08-19T18:55:32;3.17;;;1.70;;
40731;SDS011;26420;52.256;9.096;2022-08-19T19:00:34;2.03;;;1.83;;
40731;SDS011;26420;52.256;9.096;2022-08-19T19:05:36;2.20;;;1.80;;
40731;SDS011;26420;52.256;9.096;2022-08-19T19:10:40;2.40;;;2.00;;
40731;SDS011;26420;52.256;9.096;2022-08-19T19:15:42;3.60;;;1.70;;
40731;SDS011;26420;52.256;9.096;2022-08-19T19:20:44;2.38;;;2.13;;
40731;SDS011;26420;52.256;9.096;2022-08-19T19:25:45;2.58;;;2.00;;
40731;SDS011;26420;52.256;9.096;2022-08-19T19:30:52;5.05;;;2.10;;
40731;SDS011;26420;52.256;9.096;2022-08-19T19:35:54;3.63;;;2.08;;
40731;SDS011;26420;52.256;9.096;2022-08-19T19:40:56;4.28;;;2.13;;
40731;SDS011;26420;52.256;9.096;2022-08-19T19:45:58;2.75;;;2.05;;
40731;SDS011;26420;52.256;9.096;2022-08-19T19:51:00;2.35;;;2.15;;
40731;SDS011;26420;52.256;9.096;2022-08-19T19:56:02;2.10;;;1.90;;
40731;SDS011;26420;52.256;9.096;2022-08-19T20:01:05;2.70;;;2.03;;
40731;SDS011;26420;52.256;9.096;2022-08-19T20:06:13;2.72;;;2.20;;
40731;SDS011;26420;52.256;9.096;2022-08-19T20:11:29;4.30;;;2.28;;
40731;SDS011;26420;52.256;9.096;2022-08-19T20:16:40;2.33;;;2.10;;
40731;SDS011;26420;52.256;9.096;2022-08-19T20:21:44;3.38;;;2.10;;
40731;SDS011;26420;52.256;9.096;2022-08-19T20:26:51;3.08;;;2.28;;
40731;SDS011;26420;52.256;9.096;2022-08-19T20:31:53;2.35;;;2.10;;
40731;SDS011;26420;52.256;9.096;2022-08-19T20:36:59;3.23;;;2.40;;
40731;SDS011;26420;52.256;9.096;2022-08-19T20:42:01;3.15;;;2.00;;
40731;SDS011;26420;52.256;9.096;2022-08-19T20:47:02;4.63;;;2.28;;
40731;SDS011;26420;52.256;9.096;2022-08-19T20:52:04;2.17;;;1.98;;
40731;SDS011;26420;52.256;9.096;2022-08-19T20:57:06;2.72;;;2.47;;
40731;SDS011;26420;52.256;9.096;2022-08-19T21:02:08;3.45;;;2.38;;
40731;SDS011;26420;52.256;9.096;2022-08-19T21:07:11;3.45;;;2.17;;
40731;SDS011;26420;52.256;9.096;2022-08-19T21:12:12;3.58;;;2.50;;
40731;SDS011;26420;52.256;9.096;2022-08-19T21:17:14;2.92;;;2.55;;
40731;SDS011;26420;52.256;9.096;2022-08-19T21:22:16;3.20;;;2.20;;
40731;SDS011;26420;52.256;9.096;2022-08-19T21:27:17;4.40;;;2.70;;
40731;SDS011;26420;52.256;9.096;2022-08-19T21:32:19;3.05;;;2.78;;
40731;SDS011;26420;52.256;9.096;2022-08-19T21:37:21;4.82;;;2.50;;
40731;SDS011;26420;52.256;9.096;2022-08-19T21:42:26;3.05;;;2.67;;
40731;SDS011;26420;52.256;9.096;2022-08-19T21:47:27;3.17;;;2.83;;
40731;SDS011;26420;52.256;9.096;2022-08-19T21:52:29;3.40;;;3.00;;
40731;SDS011;26420;52.256;9.096;2022-08-19T21:57:31;3.70;;;2.90;;
40731;SDS011;26420;52.256;9.096;2022-08-19T22:02:33;3.00;;;2.70;;
40731;SDS011;26420;52.256;9.096;2022-08-19T22:07:34;4.35;;;2.88;;
40731;SDS011;26420;52.256;9.096;2022-08-19T22:12:37;3.75;;;3.33;;
40731;SDS011;26420;52.256;9.096;2022-08-19T22:17:52;3.20;;;2.90;;
40731;SDS011;26420;52.256;9.096;2022-08-19T22:22:56;4.38;;;2.80;;
40731;SDS011;26420;52.256;9.096;2022-08-19T22:28:06;3.22;;;2.70;;
40731;SDS011;26420;52.256;9.096;2022-08-19T22:33:14;3.70;;;2.80;;
40731;SDS011;26420;52.256;9.096;2022-08-19T22:38:18;3.00;;;2.73;;
40731;SDS011;26420;52.256;9.096;2022-08-19T22:43:21;2.63;;;2.42;;
40731;SDS011;26420;52.256;9.096;2022-08-19T22:48:25;3.30;;;2.50;;
40731;SDS011;26420;52.256;9.096;2022-08-19T22:53:31;4.47;;;2.97;;
40731;SDS011;26420;52.256;9.096;2022-08-19T22:58:34;2.83;;;2.63;;
40731;SDS011;26420;52.256;9.096;2022-08-19T23:03:37;3.42;;;2.75;;
40731;SDS011;26420;52.256;9.096;2022-08-19T23:08:40;3.15;;;2.83;;
40731;SDS011;26420;52.256;9.096;2022-08-19T23:13:42;4.10;;;3.17;;
40731;SDS011;26420;52.256;9.096;2022-08-19T23:18:44;3.22;;;2.92;;
40731;SDS011;26420;52.256;9.096;2022-08-19T23:23:45;3.78;;;3.33;;
40731;SDS011;26420;52.256;9.096;2022-08-19T23:28:47;3.83;;;3.10;;
40731;SDS011;26420;52.256;9.096;2022-08-19T23:34:08;4.47;;;3.60;;
40731;SDS011;26420;52.256;9.096;2022-08-19T23:39:09;4.03;;;3.17;;
40731;SDS011;26420;52.256;9.096;2022-08-19T23:44:11;3.53;;;3.08;;
40731;SDS011;26420;52.256;9.096;2022-08-19T23:49:15;5.20;;;3.78;;
40731;SDS011;26420;52.256;9.096;2022-08-19T23:54:16;4.15;;;3.45;;
40731;SDS011;26420;52.256;9.096;2022-08-19T23:59:18;3.63;;;3.15;;
